createdAt,value
2022-10-04T00:00:29.840Z,5.90
2022-10-04T00:03:12.057Z,6.00
2022-10-04T00:05:44.390Z,5.90
2022-10-04T00:08:31.246Z,5.90
2022-10-04T00:11:16.363Z,5.80
2022-10-04T00:13:53.502Z,5.80
2022-10-04T00:16:32.848Z,5.80
2022-10-04T00:19:28.878Z,5.90
2022-10-04T00:22:25.111Z,5.90
2022-10-04T00:25:21.392Z,5.90
2022-10-04T00:28:45.371Z,5.80
2022-10-04T00:31:23.258Z,5.70
2022-10-04T00:34:09.035Z,5.60
2022-10-04T00:36:53.884Z,5.50
2022-10-04T00:39:46.188Z,5.50
2022-10-04T00:42:39.765Z,5.60
2022-10-04T00:45:37.582Z,5.50
2022-10-04T00:48:38.647Z,5.40
2022-10-04T00:51:22.167Z,5.40
2022-10-04T00:54:04.083Z,5.40
2022-10-04T00:56:42.507Z,5.30
2022-10-04T00:59:31.857Z,5.30
2022-10-04T01:02:10.344Z,5.20
2022-10-04T01:04:47.119Z,5.20
2022-10-04T01:07:30.578Z,5.10
2022-10-04T01:10:05.854Z,5.10
2022-10-04T01:12:47.748Z,5.30
2022-10-04T01:15:32.946Z,5.20
2022-10-04T01:18:33.033Z,5.30
2022-10-04T01:21:09.713Z,5.40
2022-10-04T01:23:49.552Z,5.40
2022-10-04T01:26:41.996Z,5.30
2022-10-04T01:29:18.650Z,5.10
2022-10-04T01:31:51.804Z,5.00
2022-10-04T01:34:24.943Z,4.80
2022-10-04T01:36:58.163Z,4.80
2022-10-04T01:39:31.912Z,4.90
2022-10-04T01:42:10.308Z,5.00
2022-10-04T01:44:48.686Z,5.10
2022-10-04T01:47:29.544Z,5.10
2022-10-04T01:50:07.545Z,4.90
2022-10-04T01:52:44.391Z,4.80
2022-10-04T01:55:23.250Z,4.90
2022-10-04T01:58:01.545Z,5.00
2022-10-04T02:00:45.932Z,5.00
2022-10-04T02:03:25.419Z,4.90
2022-10-04T02:06:03.492Z,4.80
2022-10-04T02:08:38.733Z,4.80
2022-10-04T02:11:11.582Z,4.70
2022-10-04T02:13:44.795Z,4.70
2022-10-04T02:16:16.102Z,4.60
2022-10-04T02:18:48.374Z,4.70
2022-10-04T02:21:20.035Z,4.80
2022-10-04T02:23:51.823Z,4.80
2022-10-04T02:26:24.987Z,4.70
2022-10-04T02:28:55.120Z,4.40
2022-10-04T02:31:40.698Z,4.50
2022-10-04T02:34:11.478Z,4.50
2022-10-04T02:36:43.820Z,4.60
2022-10-04T02:39:23.960Z,4.70
2022-10-04T02:42:04.450Z,4.80
2022-10-04T02:44:44.807Z,4.80
2022-10-04T02:47:23.275Z,4.80
2022-10-04T02:49:57.342Z,4.70
2022-10-04T02:52:34.302Z,4.80
2022-10-04T02:55:09.425Z,4.80
2022-10-04T02:57:45.771Z,4.70
2022-10-04T03:00:24.705Z,4.50
2022-10-04T03:03:20.452Z,4.40
2022-10-04T03:06:02.363Z,4.40
2022-10-04T03:08:37.215Z,4.50
2022-10-04T03:11:09.722Z,4.50
2022-10-04T03:13:44.462Z,4.40
2022-10-04T03:16:15.235Z,4.40
2022-10-04T03:18:48.632Z,4.40
2022-10-04T03:21:22.862Z,4.50
2022-10-04T03:23:56.666Z,4.60
2022-10-04T03:26:35.594Z,4.50
2022-10-04T03:29:11.837Z,4.50
2022-10-04T03:31:47.191Z,4.40
2022-10-04T03:34:20.957Z,4.50
2022-10-04T03:36:54.013Z,4.50
2022-10-04T03:39:36.016Z,4.50
2022-10-04T03:42:13.406Z,4.50
2022-10-04T03:44:48.279Z,4.40
2022-10-04T03:47:24.148Z,4.30
2022-10-04T03:49:56.368Z,4.40
2022-10-04T03:52:32.282Z,4.40
2022-10-04T03:55:07.277Z,4.40
2022-10-04T03:57:40.048Z,4.40
2022-10-04T04:00:18.761Z,4.40
2022-10-04T04:02:53.652Z,4.40
2022-10-04T04:05:31.611Z,4.40
2022-10-04T04:08:14.741Z,4.50
2022-10-04T04:10:50.679Z,4.50
2022-10-04T04:13:32.129Z,4.50
2022-10-04T04:16:07.483Z,4.50
2022-10-04T04:18:43.374Z,4.40
2022-10-04T04:21:20.095Z,4.40
2022-10-04T04:23:56.321Z,4.40
2022-10-04T04:26:40.227Z,4.40
2022-10-04T04:29:19.506Z,4.50
2022-10-04T04:31:59.065Z,4.40
2022-10-04T04:34:34.957Z,4.40
2022-10-04T04:37:07.854Z,4.40
2022-10-04T04:39:37.891Z,4.40
2022-10-04T04:42:21.311Z,4.30
2022-10-04T04:44:55.720Z,4.20
2022-10-04T04:47:35.097Z,4.10
2022-10-04T04:50:13.762Z,4.20
2022-10-04T04:52:48.184Z,4.10
2022-10-04T04:55:24.451Z,4.00
2022-10-04T04:57:58.237Z,4.00
2022-10-04T05:00:38.728Z,3.90
2022-10-04T05:03:21.285Z,3.80
2022-10-04T05:05:51.893Z,4.00
2022-10-04T05:08:26.974Z,4.00
2022-10-04T05:11:08.581Z,4.00
2022-10-04T05:13:45.827Z,4.20
2022-10-04T05:16:21.783Z,4.30
2022-10-04T05:19:01.366Z,4.30
2022-10-04T05:21:34.790Z,4.40
2022-10-04T05:24:15.339Z,4.40
2022-10-04T05:26:46.485Z,4.50
2022-10-04T05:29:22.924Z,4.70
2022-10-04T05:32:05.423Z,4.80
2022-10-04T05:34:45.460Z,4.80
2022-10-04T05:37:42.762Z,4.80
2022-10-04T05:40:36.444Z,4.90
2022-10-04T05:43:25.452Z,5.10
2022-10-04T05:46:18.361Z,5.20
2022-10-04T05:48:54.583Z,5.30
2022-10-04T05:51:30.869Z,5.40
2022-10-04T05:54:04.669Z,5.50
2022-10-04T05:57:01.902Z,5.60
2022-10-04T06:00:04.437Z,5.60
2022-10-04T06:03:20.748Z,5.70
2022-10-04T06:05:58.375Z,5.90
2022-10-04T06:08:51.150Z,5.90
2022-10-04T06:11:35.136Z,6.10
2022-10-04T06:14:43.000Z,6.10
2022-10-04T06:17:50.606Z,6.10
2022-10-04T06:20:46.186Z,6.10
2022-10-04T06:23:21.149Z,6.20
2022-10-04T06:25:58.909Z,6.30
2022-10-04T06:28:37.433Z,6.30
2022-10-04T06:31:46.711Z,6.60
2022-10-04T06:34:56.672Z,6.70
2022-10-04T06:38:14.628Z,6.70
2022-10-04T06:41:19.878Z,6.50
2022-10-04T06:44:14.229Z,6.40
2022-10-04T06:46:52.361Z,6.60
2022-10-04T06:49:44.173Z,6.80
2022-10-04T06:52:42.838Z,6.90
2022-10-04T06:56:03.060Z,7.20
2022-10-04T06:59:32.957Z,7.20
2022-10-04T07:02:12.389Z,7.30
2022-10-04T07:05:08.952Z,7.40
2022-10-04T07:07:47.171Z,7.40
2022-10-04T07:10:33.264Z,7.60
2022-10-04T07:13:26.657Z,7.70
2022-10-04T07:16:06.564Z,8.00
2022-10-04T07:18:47.827Z,8.10
2022-10-04T07:21:20.067Z,8.10
2022-10-04T07:23:56.645Z,8.10
2022-10-04T07:26:35.909Z,8.10
2022-10-04T07:29:23.221Z,8.10
2022-10-04T07:32:09.438Z,7.90
2022-10-04T07:34:48.279Z,8.00
2022-10-04T07:37:20.673Z,8.30
2022-10-04T07:39:59.953Z,8.20
2022-10-04T07:42:37.727Z,8.20
2022-10-04T07:45:20.840Z,8.10
2022-10-04T07:47:51.107Z,8.40
2022-10-04T07:50:28.194Z,8.70
2022-10-04T07:53:09.347Z,9.20
2022-10-04T07:55:58.063Z,9.70
2022-10-04T07:58:51.864Z,10.20
2022-10-04T08:01:38.103Z,11.00
2022-10-04T08:04:38.177Z,12.30
2022-10-04T08:07:21.239Z,13.40
2022-10-04T08:10:06.603Z,14.40
2022-10-04T08:12:53.180Z,15.10
2022-10-04T08:15:40.759Z,14.90
2022-10-04T08:18:46.344Z,14.80
2022-10-04T08:21:26.818Z,14.60
2022-10-04T08:24:18.581Z,14.30
2022-10-04T08:27:04.655Z,14.20
2022-10-04T08:29:58.283Z,14.10
2022-10-04T08:32:55.922Z,14.40
2022-10-04T08:35:48.020Z,14.10
2022-10-04T08:38:46.743Z,13.80
2022-10-04T08:42:20.538Z,13.80
2022-10-04T08:45:34.774Z,13.50
2022-10-04T08:48:56.174Z,13.20
2022-10-04T08:52:34.687Z,13.50
2022-10-04T08:55:35.218Z,14.50
2022-10-04T08:58:53.438Z,15.60
2022-10-04T09:01:53.984Z,16.40
2022-10-04T09:05:02.868Z,17.30
2022-10-04T09:08:37.205Z,17.70
2022-10-04T09:11:50.437Z,17.90
2022-10-04T09:14:53.326Z,18.00
2022-10-04T09:17:30.770Z,18.60
2022-10-04T09:20:39.359Z,20.40
2022-10-04T09:23:37.414Z,22.30
2022-10-04T09:26:24.550Z,25.00
2022-10-04T09:29:30.065Z,27.80
2022-10-04T09:32:46.292Z,30.10
2022-10-04T09:36:03.040Z,30.80
2022-10-04T09:39:30.025Z,31.30
2022-10-04T09:42:41.988Z,31.90
2022-10-04T09:45:51.845Z,31.50
2022-10-04T09:48:37.050Z,30.90
2022-10-04T09:51:27.440Z,30.80
2022-10-04T09:54:29.145Z,30.70
2022-10-04T09:57:30.286Z,30.80
2022-10-04T10:00:25.264Z,30.20
2022-10-04T10:03:42.164Z,29.90
2022-10-04T10:06:44.999Z,29.80
2022-10-04T10:09:51.201Z,28.60
2022-10-04T10:13:11.498Z,29.20
2022-10-04T10:15:59.666Z,29.80
2022-10-04T10:18:49.193Z,28.30
2022-10-04T10:21:48.016Z,27.60
2022-10-04T10:25:03.836Z,27.80
2022-10-04T10:28:15.139Z,28.30
2022-10-04T10:31:14.396Z,26.80
2022-10-04T10:34:22.015Z,26.20
2022-10-04T10:37:16.020Z,26.50
2022-10-04T10:40:25.924Z,26.30
2022-10-04T10:43:49.231Z,26.20
2022-10-04T10:46:58.593Z,26.10
2022-10-04T10:50:19.656Z,26.40
2022-10-04T10:53:41.489Z,27.10
2022-10-04T10:56:39.576Z,27.80
2022-10-04T10:59:55.184Z,27.40
2022-10-04T11:03:20.539Z,27.20
2022-10-04T11:06:26.393Z,26.10
2022-10-04T11:09:32.960Z,26.40
2022-10-04T11:12:57.774Z,26.80
2022-10-04T11:16:02.008Z,27.20
2022-10-04T11:19:23.517Z,27.00
2022-10-04T11:22:36.042Z,27.40
2022-10-04T11:25:47.087Z,29.50
2022-10-04T11:28:29.085Z,31.60
2022-10-04T11:31:48.975Z,31.90
2022-10-04T11:35:07.035Z,32.20
2022-10-04T11:38:00.928Z,32.90
2022-10-04T11:40:55.485Z,32.00
2022-10-04T11:44:05.702Z,31.90
2022-10-04T11:46:50.867Z,30.70
2022-10-04T11:49:56.529Z,28.70
2022-10-04T11:53:14.009Z,27.30
2022-10-04T11:56:22.056Z,27.50
2022-10-04T11:59:38.891Z,28.50
2022-10-04T12:02:44.224Z,29.70
2022-10-04T12:06:02.900Z,27.00
2022-10-04T12:08:48.481Z,25.80
2022-10-04T12:12:16.111Z,25.20
2022-10-04T12:15:22.494Z,24.60
2022-10-04T12:18:39.723Z,24.80
2022-10-04T12:21:57.382Z,26.00
2022-10-04T12:25:11.402Z,26.50
2022-10-04T12:28:11.715Z,27.40
2022-10-04T12:31:15.330Z,28.30
2022-10-04T12:33:59.125Z,27.40
2022-10-04T12:37:22.280Z,26.30
2022-10-04T12:40:24.539Z,25.30
2022-10-04T12:43:05.255Z,23.80
2022-10-04T12:45:58.122Z,22.40
2022-10-04T12:48:53.838Z,21.70
2022-10-04T12:51:52.217Z,21.40
2022-10-04T12:54:37.523Z,21.00
2022-10-04T12:57:47.700Z,20.70
2022-10-04T13:00:22.960Z,20.40
2022-10-04T13:03:22.135Z,20.10
2022-10-04T13:06:12.881Z,19.70
2022-10-04T13:09:09.341Z,19.30
2022-10-04T13:12:00.642Z,18.70
2022-10-04T13:15:00.384Z,18.50
2022-10-04T13:17:46.597Z,18.40
2022-10-04T13:20:46.662Z,18.30
2022-10-04T13:23:39.596Z,18.30
2022-10-04T13:26:34.342Z,18.30
2022-10-04T13:29:18.189Z,17.90
2022-10-04T13:31:59.113Z,17.80
2022-10-04T13:34:42.129Z,17.60
2022-10-04T13:37:38.315Z,17.70
2022-10-04T13:40:50.702Z,17.70
2022-10-04T13:43:56.637Z,17.50
2022-10-04T13:46:43.519Z,17.50
2022-10-04T13:49:39.482Z,17.30
2022-10-04T13:52:42.706Z,17.30
2022-10-04T13:56:05.630Z,17.40
2022-10-04T13:58:49.542Z,17.50
2022-10-04T14:02:15.027Z,17.30
2022-10-04T14:05:27.908Z,17.30
2022-10-04T14:08:39.029Z,17.30
2022-10-04T14:11:49.811Z,17.30
2022-10-04T14:15:12.593Z,17.40
2022-10-04T14:18:41.321Z,17.50
2022-10-04T14:21:34.134Z,17.70
2022-10-04T14:24:52.640Z,17.60
2022-10-04T14:28:13.435Z,17.50
2022-10-04T14:31:07.450Z,17.70
2022-10-04T14:34:29.622Z,17.90
2022-10-04T14:37:57.314Z,17.90
2022-10-04T14:40:49.692Z,17.90
2022-10-04T14:44:14.828Z,17.90
2022-10-04T14:47:03.658Z,17.90
2022-10-04T14:50:10.549Z,17.80
2022-10-04T14:53:02.112Z,17.90
2022-10-04T14:56:26.755Z,17.80
2022-10-04T14:59:23.013Z,17.80
2022-10-04T15:02:22.326Z,17.80
2022-10-04T15:05:32.088Z,17.80
2022-10-04T15:08:40.484Z,17.80
2022-10-04T15:11:15.344Z,17.90
2022-10-04T15:13:56.660Z,17.80
2022-10-04T15:16:50.415Z,17.80
2022-10-04T15:19:32.232Z,17.80
2022-10-04T15:22:13.793Z,17.80
2022-10-04T15:24:52.714Z,17.80
2022-10-04T15:27:53.230Z,17.80
2022-10-04T15:30:47.882Z,17.70
2022-10-04T15:33:35.649Z,17.60
2022-10-04T15:36:52.958Z,17.70
2022-10-04T15:39:46.992Z,17.80
2022-10-04T15:42:28.322Z,17.70
2022-10-04T15:45:33.232Z,17.70
2022-10-04T15:48:24.680Z,17.70
2022-10-04T15:51:13.966Z,17.80
2022-10-04T15:54:07.564Z,17.60
2022-10-04T15:56:55.814Z,17.60
2022-10-04T15:59:53.621Z,17.50
2022-10-04T16:03:01.626Z,17.40
2022-10-04T16:05:40.638Z,17.40
2022-10-04T16:09:03.067Z,17.40
2022-10-04T16:11:50.525Z,17.10
2022-10-04T16:15:02.211Z,17.00
2022-10-04T16:17:49.729Z,16.90
2022-10-04T16:20:56.271Z,16.90
2022-10-04T16:23:36.037Z,16.80
2022-10-04T16:26:15.562Z,16.70
2022-10-04T16:29:28.078Z,16.60
2022-10-04T16:32:03.223Z,16.50
2022-10-04T16:34:55.227Z,16.50
2022-10-04T16:37:40.925Z,16.40
2022-10-04T16:40:35.495Z,16.30
2022-10-04T16:43:14.345Z,16.10
2022-10-04T16:46:16.973Z,16.00
2022-10-04T16:48:56.675Z,15.90
2022-10-04T16:52:09.270Z,15.70
2022-10-04T16:55:20.978Z,15.60
2022-10-04T16:58:41.444Z,15.30
2022-10-04T17:02:21.270Z,15.20
2022-10-04T17:05:03.904Z,15.20
2022-10-04T17:07:58.143Z,15.10
2022-10-04T17:10:40.089Z,14.90
2022-10-04T17:13:26.787Z,14.80
2022-10-04T17:16:14.100Z,14.80
2022-10-04T17:19:13.036Z,14.60
2022-10-04T17:22:04.115Z,14.40
2022-10-04T17:24:53.734Z,14.30
2022-10-04T17:27:47.672Z,14.00
2022-10-04T17:30:22.800Z,13.80
2022-10-04T17:33:20.459Z,13.60
2022-10-04T17:36:38.878Z,13.40
2022-10-04T17:39:41.898Z,13.30
2022-10-04T17:42:29.034Z,13.10
2022-10-04T17:45:26.590Z,13.10
2022-10-04T17:48:18.163Z,13.10
2022-10-04T17:51:18.305Z,13.00
2022-10-04T17:54:11.698Z,13.10
2022-10-04T17:56:51.246Z,13.10
2022-10-04T17:59:30.830Z,13.10
2022-10-04T18:02:13.751Z,13.20
2022-10-04T18:04:56.870Z,13.20
2022-10-04T18:07:36.457Z,13.20
2022-10-04T18:10:29.048Z,13.10
2022-10-04T18:13:06.283Z,12.90
2022-10-04T18:15:46.447Z,12.80
2022-10-04T18:18:23.027Z,12.70
2022-10-04T18:21:09.054Z,12.60
2022-10-04T18:23:41.867Z,12.60
2022-10-04T18:26:21.002Z,12.60
2022-10-04T18:28:53.869Z,12.40
2022-10-04T18:31:38.086Z,12.40
2022-10-04T18:34:32.140Z,12.40
2022-10-04T18:37:21.210Z,12.20
2022-10-04T18:39:55.720Z,12.20
2022-10-04T18:42:35.278Z,12.10
2022-10-04T18:45:23.146Z,12.00
2022-10-04T18:47:54.336Z,11.80
2022-10-04T18:50:39.241Z,11.70
2022-10-04T18:53:38.937Z,11.60
2022-10-04T18:56:13.137Z,11.50
2022-10-04T18:59:22.639Z,11.40
2022-10-04T19:02:11.805Z,11.40
2022-10-04T19:04:49.815Z,11.50
2022-10-04T19:07:24.199Z,11.40
2022-10-04T19:10:20.738Z,11.30
2022-10-04T19:13:16.164Z,11.10
2022-10-04T19:16:18.835Z,10.90
2022-10-04T19:19:20.704Z,11.00
2022-10-04T19:22:11.075Z,11.10
2022-10-04T19:25:13.643Z,11.10
2022-10-04T19:27:51.797Z,11.10
2022-10-04T19:30:25.154Z,11.20
2022-10-04T19:33:18.917Z,11.20
2022-10-04T19:36:09.079Z,11.30
2022-10-04T19:39:09.118Z,11.10
2022-10-04T19:41:57.352Z,11.00
2022-10-04T19:44:55.544Z,10.80
2022-10-04T19:47:49.024Z,10.70
2022-10-04T19:50:26.846Z,10.70
2022-10-04T19:53:04.804Z,10.80
2022-10-04T19:55:49.500Z,10.80
2022-10-04T19:58:39.024Z,10.80
2022-10-04T20:01:16.205Z,10.80
2022-10-04T20:03:47.153Z,10.80
2022-10-04T20:06:26.464Z,10.70
2022-10-04T20:09:02.587Z,10.60
2022-10-04T20:11:52.026Z,10.50
2022-10-04T20:14:48.254Z,10.40
2022-10-04T20:17:35.541Z,10.30
2022-10-04T20:20:05.984Z,10.30
2022-10-04T20:23:00.051Z,10.30
2022-10-04T20:26:03.993Z,10.30
2022-10-04T20:28:46.209Z,10.30
2022-10-04T20:31:55.954Z,10.40
2022-10-04T20:34:35.827Z,10.20
2022-10-04T20:37:08.349Z,10.20
2022-10-04T20:40:04.583Z,10.30
2022-10-04T20:42:38.354Z,10.30
2022-10-04T20:45:25.613Z,10.20
2022-10-04T20:47:58.309Z,10.30
2022-10-04T20:50:36.341Z,10.30
2022-10-04T20:53:15.408Z,10.20
2022-10-04T20:55:48.771Z,10.10
2022-10-04T20:58:32.621Z,10.30
2022-10-04T21:01:16.722Z,10.30
2022-10-04T21:03:47.006Z,10.10
2022-10-04T21:06:17.014Z,10.00
2022-10-04T21:08:47.136Z,10.00
2022-10-04T21:11:23.406Z,10.20
2022-10-04T21:14:02.425Z,10.30
2022-10-04T21:16:45.843Z,10.30
2022-10-04T21:19:54.956Z,10.30
2022-10-04T21:22:37.083Z,10.20
2022-10-04T21:25:34.307Z,10.00
2022-10-04T21:28:37.720Z,10.00
2022-10-04T21:31:08.375Z,10.20
2022-10-04T21:33:40.206Z,10.20
2022-10-04T21:36:10.865Z,10.10
2022-10-04T21:38:40.858Z,10.20
2022-10-04T21:41:11.375Z,10.10
2022-10-04T21:43:44.046Z,10.00
2022-10-04T21:46:19.357Z,9.90
2022-10-04T21:48:50.494Z,9.80
2022-10-04T21:51:20.489Z,9.70
2022-10-04T21:53:50.716Z,9.70
2022-10-04T21:56:20.757Z,9.60
2022-10-04T21:58:53.481Z,9.50
2022-10-04T22:01:23.549Z,9.70
2022-10-04T22:03:54.004Z,9.60
2022-10-04T22:06:24.157Z,9.50
2022-10-04T22:08:54.455Z,9.40
2022-10-04T22:11:24.462Z,9.20
2022-10-04T22:13:57.057Z,9.10
2022-10-04T22:16:27.086Z,9.00
2022-10-04T22:18:57.521Z,8.90
2022-10-04T22:21:27.543Z,8.70
2022-10-04T22:23:57.625Z,8.90
2022-10-04T22:26:29.697Z,9.20
2022-10-04T22:29:02.515Z,9.50
2022-10-04T22:31:32.890Z,9.50
2022-10-04T22:34:03.147Z,9.50
2022-10-04T22:36:41.627Z,9.50
2022-10-04T22:39:17.748Z,9.40
2022-10-04T22:41:50.918Z,9.40
2022-10-04T22:44:27.774Z,9.30
2022-10-04T22:47:02.058Z,9.10
2022-10-04T22:49:35.274Z,9.00
2022-10-04T22:52:13.796Z,9.00
2022-10-04T22:54:48.479Z,9.00
2022-10-04T22:57:21.697Z,8.80
2022-10-04T22:59:55.604Z,8.80
2022-10-04T23:02:32.000Z,8.80
2022-10-04T23:05:14.994Z,8.70
2022-10-04T23:07:45.498Z,8.90
2022-10-04T23:10:20.293Z,8.90
2022-10-04T23:12:51.776Z,8.80
2022-10-04T23:15:24.513Z,8.70
2022-10-04T23:17:57.944Z,8.80
2022-10-04T23:20:27.928Z,8.90
2022-10-04T23:22:58.568Z,8.90
2022-10-04T23:25:31.594Z,8.90
2022-10-04T23:28:07.759Z,8.80
2022-10-04T23:30:40.485Z,8.70
2022-10-04T23:33:20.515Z,8.50
2022-10-04T23:35:53.104Z,8.40
2022-10-04T23:38:26.031Z,8.50
2022-10-04T23:40:56.134Z,8.50
2022-10-04T23:43:29.157Z,8.50
2022-10-04T23:46:01.915Z,8.50
2022-10-04T23:48:33.162Z,8.60
2022-10-04T23:51:03.448Z,8.70
2022-10-04T23:53:36.381Z,8.70
2022-10-04T23:56:14.527Z,8.50
2022-10-04T23:58:44.862Z,8.50
